createdAt,value
2022-12-13T00:47:23.412Z,101028.38
2022-12-13T00:49:51.241Z,101033.97
2022-12-13T00:52:18.846Z,101031.16
2022-12-13T00:54:46.573Z,101028.38
2022-12-13T00:57:14.170Z,101028.38
2022-12-13T00:59:41.682Z,101020.81
2022-12-13T01:47:34.907Z,101006.75
2022-12-13T01:50:03.022Z,101013.94
2022-12-13T01:52:30.877Z,101006.75
2022-12-13T01:55:03.534Z,101007.88
2022-12-13T01:57:31.761Z,101010.69
2022-12-13T02:00:00.426Z,101012.34
2022-12-13T02:46:19.542Z,101000.91
2022-12-13T02:48:47.058Z,101008.97
2022-12-13T02:51:14.806Z,101000.91
2022-12-13T02:53:42.409Z,101002.53
2022-12-13T02:56:10.179Z,101002.53
2022-12-13T02:58:38.599Z,101001.72
2022-12-13T03:47:40.592Z,100970.91
2022-12-13T03:50:26.673Z,100965.31
2022-12-13T03:52:59.573Z,100966.94
2022-12-13T03:55:27.126Z,100956.94
2022-12-13T03:57:54.791Z,100959.25
2022-12-13T04:47:12.361Z,100961.59
2022-12-13T04:49:40.000Z,100967.19
2022-12-13T04:52:07.789Z,100964.84
2022-12-13T04:54:37.014Z,100960.91
2022-12-13T04:57:06.560Z,100965.31
2022-12-13T04:59:34.286Z,100966.50
2022-12-13T05:32:26.483Z,100964.50
2022-12-13T05:34:54.038Z,100966.50
2022-12-13T05:37:21.636Z,100960.91
2022-12-13T05:39:49.262Z,100961.72
2022-12-13T05:42:16.832Z,100960.91
2022-12-13T05:44:44.550Z,100955.31
2022-12-13T05:47:12.705Z,100956.13
2022-12-13T05:49:41.879Z,100958.56
2022-12-13T05:52:16.034Z,100965.78
2022-12-13T05:54:44.051Z,100965.78
2022-12-13T05:57:12.211Z,100957.38
2022-12-13T05:59:39.971Z,100960.19
2022-12-13T06:02:07.898Z,100958.56
2022-12-13T06:04:35.593Z,100952.97
2022-12-13T06:07:04.963Z,100955.75
2022-12-13T06:09:33.076Z,100962.53
2022-12-13T06:12:31.274Z,100958.56
2022-12-13T06:15:21.560Z,100964.16
2022-12-13T06:17:45.383Z,100964.97
2022-12-13T06:20:24.099Z,100971.34
2022-12-13T06:22:53.695Z,100969.72
2022-12-13T06:25:31.501Z,100971.34
2022-12-13T06:28:00.955Z,100962.97
2022-12-13T06:30:29.425Z,100962.97
2022-12-13T06:32:57.276Z,100969.72
2022-12-13T06:35:28.107Z,100966.13
2022-12-13T06:38:01.348Z,100972.53
2022-12-13T06:40:30.277Z,100976.94
2022-12-13T06:42:58.236Z,100974.97
2022-12-13T06:45:26.037Z,100979.72
2022-12-13T06:47:53.760Z,100979.72
2022-12-13T06:50:21.415Z,100986.50
2022-12-13T06:52:49.038Z,100986.50
2022-12-13T06:55:24.099Z,100975.19
2022-12-13T06:57:51.995Z,100980.91
2022-12-13T07:00:21.939Z,100978.34
2022-12-13T07:02:53.109Z,100993.69
2022-12-13T07:05:21.123Z,100990.91
2022-12-13T07:07:48.953Z,100992.53
2022-12-13T07:10:21.844Z,100993.69
2022-12-13T07:12:50.587Z,101000.91
2022-12-13T07:15:18.303Z,100997.78
2022-12-13T07:17:45.902Z,100999.75
2022-12-13T07:20:15.774Z,101000.91
2022-12-13T07:22:48.507Z,101004.06
2022-12-13T07:25:28.392Z,101002.09
2022-12-13T07:28:01.263Z,101004.88
2022-12-13T07:30:30.045Z,101009.66
2022-12-13T07:32:58.488Z,101011.63
2022-12-13T07:35:26.117Z,101010.47
2022-12-13T07:37:53.705Z,101013.25
2022-12-13T07:40:22.585Z,101012.09
2022-12-13T07:42:50.652Z,101012.09
2022-12-13T07:45:19.251Z,101017.66
2022-12-13T07:47:46.932Z,101014.88
2022-12-13T07:50:25.058Z,101018.47
2022-12-13T07:52:53.734Z,101028.84
2022-12-13T07:55:33.086Z,101023.63
2022-12-13T07:58:06.235Z,101014.44
2022-12-13T08:00:34.181Z,101025.59
2022-12-13T08:03:02.100Z,101023.97
2022-12-13T08:05:29.907Z,101025.59
2022-12-13T08:08:07.154Z,101031.19
2022-12-13T08:10:36.202Z,101031.19
2022-12-13T08:13:04.208Z,101031.19
2022-12-13T08:15:31.896Z,101033.16
2022-12-13T08:18:00.821Z,101031.19
2022-12-13T08:20:28.458Z,101035.16
2022-12-13T08:23:02.254Z,101024.78
2022-12-13T08:25:30.485Z,101031.19
2022-12-13T08:28:01.654Z,101040.03
2022-12-13T08:30:30.372Z,101030.38
2022-12-13T08:32:58.216Z,101032.81
2022-12-13T08:35:33.686Z,101025.59
2022-12-13T08:38:01.897Z,101033.97
2022-12-13T08:40:29.506Z,101047.94
2022-12-13T08:42:58.741Z,101045.16
2022-12-13T08:45:27.006Z,101043.97
2022-12-13T08:47:54.647Z,101047.94
2022-12-13T08:50:22.280Z,101052.72
2022-12-13T08:52:49.913Z,101051.91
2022-12-13T08:55:21.120Z,101052.25
2022-12-13T08:58:01.250Z,101048.63
2022-12-13T09:00:29.051Z,101047.50
2022-12-13T09:03:03.830Z,101048.63
2022-12-13T09:05:33.847Z,101057.81
2022-12-13T09:08:04.232Z,101048.63
2022-12-13T09:10:41.074Z,101054.22
2022-12-13T09:13:11.441Z,101051.09
2022-12-13T09:15:45.779Z,101046.31
2022-12-13T09:18:15.045Z,101052.72
2022-12-13T09:20:43.303Z,101051.91
2022-12-13T09:23:14.010Z,101051.91
2022-12-13T09:25:55.206Z,101052.72
2022-12-13T09:28:24.445Z,101064.72
2022-12-13T09:30:52.188Z,101059.13
2022-12-13T09:33:30.570Z,101059.94
2022-12-13T09:36:01.662Z,101055.97
2022-12-13T09:38:30.010Z,101054.00
2022-12-13T09:40:58.541Z,101059.56
2022-12-13T09:43:32.445Z,101056.78
2022-12-13T09:46:01.933Z,101047.81
2022-12-13T09:48:30.187Z,101056.78
2022-12-13T09:51:17.071Z,101047.94
2022-12-13T09:53:51.442Z,101051.91
2022-12-13T09:56:19.530Z,101047.94
2022-12-13T09:58:50.619Z,101056.31
2022-12-13T10:01:22.400Z,101057.50
2022-12-13T10:03:52.745Z,101058.31
2022-12-13T10:06:22.698Z,101050.75
2022-12-13T10:08:57.588Z,101054.72
2022-12-13T10:11:31.750Z,101047.13
2022-12-13T10:14:02.537Z,101047.94
2022-12-13T10:16:36.118Z,101051.91
2022-12-13T10:19:05.000Z,101051.09
2022-12-13T10:21:34.627Z,101040.75
2022-12-13T10:24:34.631Z,101045.16
2022-12-13T10:26:51.306Z,101037.94
2022-12-13T10:29:20.457Z,101036.78
2022-12-13T10:31:48.730Z,101033.53
2022-12-13T10:34:22.899Z,101033.53
2022-12-13T10:36:51.031Z,101035.16
2022-12-13T10:39:19.866Z,101029.88
2022-12-13T10:41:47.949Z,101031.88
2022-12-13T10:44:24.231Z,101031.06
2022-12-13T10:46:53.324Z,101027.94
2022-12-13T10:49:22.699Z,101020.69
2022-12-13T10:51:51.898Z,101027.94
2022-12-13T10:54:26.637Z,101027.94
2022-12-13T10:56:59.968Z,101023.97
2022-12-13T10:59:33.048Z,101017.56
2022-12-13T11:02:01.873Z,101016.78
2022-12-13T11:04:30.582Z,101018.72
2022-12-13T11:06:58.738Z,101013.13
2022-12-13T11:09:26.833Z,101015.94
2022-12-13T11:11:58.832Z,101016.78
2022-12-13T11:14:32.154Z,101023.97
2022-12-13T11:17:02.134Z,101010.81
2022-12-13T11:19:31.382Z,101014.44
2022-12-13T11:21:59.390Z,101009.66
2022-12-13T11:24:29.829Z,101007.22
2022-12-13T11:26:58.332Z,101011.19
2022-12-13T11:29:32.091Z,101011.19
2022-12-13T11:32:02.816Z,101008.38
2022-12-13T11:34:32.867Z,101012.00
2022-12-13T11:37:02.384Z,101006.41
2022-12-13T11:39:31.021Z,101012.00
2022-12-13T11:42:00.023Z,101000.81
2022-12-13T11:44:29.428Z,101005.59
2022-12-13T11:46:57.507Z,101006.72
2022-12-13T11:49:30.597Z,101004.75
2022-12-13T11:51:59.918Z,101000.00
2022-12-13T11:54:29.403Z,101005.59
2022-12-13T11:57:00.177Z,100997.22
2022-12-13T11:59:29.662Z,101008.03
2022-12-13T12:02:04.827Z,101007.22
2022-12-13T12:04:35.916Z,101001.63
2022-12-13T12:07:30.666Z,101005.22
2022-12-13T12:09:55.245Z,101006.03
2022-12-13T12:12:25.164Z,100998.47
2022-12-13T12:14:53.814Z,100999.66
2022-12-13T12:17:23.050Z,101008.84
2022-12-13T12:19:53.659Z,101004.44
2022-12-13T12:22:24.313Z,101001.63
2022-12-13T12:24:58.345Z,101003.59
2022-12-13T12:27:29.055Z,101005.59
2022-12-13T12:30:03.203Z,101003.59
2022-12-13T12:32:33.283Z,100995.22
2022-12-13T12:35:06.457Z,101001.63
2022-12-13T12:37:36.507Z,101007.22
2022-12-13T12:40:08.810Z,101000.81
2022-12-13T12:43:11.826Z,100998.84
2022-12-13T12:51:15.713Z,101004.44
2022-12-13T12:53:44.442Z,101005.59
2022-12-13T12:56:24.935Z,100998.34
2022-12-13T12:58:54.382Z,101005.59
2022-12-13T13:01:26.532Z,100999.16
2022-12-13T13:03:54.459Z,101000.00
2022-12-13T13:06:32.029Z,101001.63
2022-12-13T13:09:00.212Z,101001.63
2022-12-13T13:11:29.324Z,101001.63
2022-12-13T13:14:04.230Z,101002.56
2022-12-13T13:16:33.538Z,101003.72
2022-12-13T13:19:01.386Z,100998.00
2022-12-13T13:21:49.804Z,101003.72
2022-12-13T13:24:22.660Z,100997.78
2022-12-13T13:26:51.077Z,100997.91
2022-12-13T13:29:27.570Z,100996.72
2022-12-13T13:32:01.169Z,101003.94
2022-12-13T13:34:30.706Z,100999.16
2022-12-13T13:36:59.108Z,101003.94
2022-12-13T13:39:54.370Z,101000.00
2022-12-13T13:42:22.323Z,100994.41
2022-12-13T13:44:56.787Z,100996.03
2022-12-13T13:47:39.041Z,100998.03
2022-12-13T13:50:23.080Z,100994.41
2022-12-13T13:52:53.531Z,100996.03
2022-12-13T13:55:51.331Z,100988.84
2022-12-13T13:58:49.192Z,100988.84
2022-12-13T14:01:35.583Z,100990.47
2022-12-13T14:04:22.484Z,100987.66
2022-12-13T14:07:10.619Z,100989.66
2022-12-13T14:09:53.362Z,100985.19
2022-12-13T14:12:38.781Z,100986.03
2022-12-13T14:15:21.336Z,100990.47
2022-12-13T14:18:21.155Z,100990.47
2022-12-13T14:20:52.876Z,100988.00
2022-12-13T14:23:29.015Z,100991.63
2022-12-13T14:26:01.935Z,100994.41
2022-12-13T14:28:32.930Z,100993.59
2022-12-13T14:31:00.845Z,101001.63
2022-12-13T14:33:30.316Z,100998.84
2022-12-13T14:35:58.491Z,100990.78
2022-12-13T14:38:26.733Z,100994.41
2022-12-13T14:40:55.601Z,100994.41
2022-12-13T14:43:24.750Z,100996.38
2022-12-13T14:45:57.380Z,100994.41
2022-12-13T14:48:28.625Z,100990.78
2022-12-13T14:50:58.230Z,100996.38
2022-12-13T14:53:29.681Z,100987.19
2022-12-13T14:56:04.379Z,100986.38
2022-12-13T14:58:32.413Z,100984.38
2022-12-13T15:01:00.182Z,100978.81
2022-12-13T15:03:28.595Z,100984.88
2022-12-13T15:05:58.819Z,100991.63
2022-12-13T15:08:26.512Z,100991.63
2022-12-13T15:10:54.773Z,100998.84
2022-12-13T15:13:25.959Z,100996.03
2022-12-13T15:15:57.996Z,100996.03
2022-12-13T15:18:26.087Z,100996.03
2022-12-13T15:21:01.953Z,100997.66
2022-12-13T15:23:49.480Z,100998.84
2022-12-13T15:26:27.697Z,100991.63
2022-12-13T15:28:57.975Z,100996.03
2022-12-13T15:31:25.618Z,100996.84
2022-12-13T15:33:53.294Z,100990.47
2022-12-13T15:36:30.384Z,100998.84
2022-12-13T15:39:01.099Z,100995.22
2022-12-13T15:41:29.156Z,100997.22
2022-12-13T15:43:57.510Z,101002.81
2022-12-13T15:46:25.807Z,101005.59
2022-12-13T15:48:54.260Z,101001.16
2022-12-13T15:51:28.447Z,100998.34
2022-12-13T15:54:03.026Z,101003.94
2022-12-13T15:56:31.555Z,101003.94
2022-12-13T15:58:59.232Z,100998.34
2022-12-13T16:01:27.652Z,100996.38
2022-12-13T16:03:55.315Z,100997.53
2022-12-13T16:06:23.595Z,101005.09
2022-12-13T16:08:51.427Z,100998.34
2022-12-13T16:11:27.403Z,100995.91
2022-12-13T16:13:58.324Z,100995.09
2022-12-13T16:16:27.971Z,101002.31
2022-12-13T16:18:56.892Z,100995.09
2022-12-13T16:21:25.364Z,100989.53
2022-12-13T16:23:52.947Z,100989.53
2022-12-13T16:26:24.101Z,100988.72
2022-12-13T16:28:53.133Z,100987.91
2022-12-13T16:31:22.068Z,100988.72
2022-12-13T16:33:50.247Z,100990.34
2022-12-13T16:36:17.986Z,100985.09
2022-12-13T16:38:45.765Z,100973.94
2022-12-13T16:41:14.689Z,100979.53
2022-12-13T16:43:45.995Z,100981.50
2022-12-13T16:47:16.226Z,100981.50
2022-12-13T16:49:03.110Z,100986.28
2022-12-13T16:51:30.721Z,100986.28
2022-12-13T16:53:58.313Z,100991.06
2022-12-13T16:56:25.954Z,100987.91
2022-12-13T16:58:53.858Z,100987.09
2022-12-13T17:01:23.045Z,100986.28
2022-12-13T17:03:52.316Z,100986.28
2022-12-13T17:06:20.603Z,100986.28
2022-12-13T17:08:48.555Z,100980.69
2022-12-13T17:11:18.343Z,100986.28
2022-12-13T17:13:48.261Z,100989.06
2022-12-13T17:16:16.044Z,100985.47
2022-12-13T17:18:45.229Z,100986.28
2022-12-13T17:21:12.789Z,100985.47
2022-12-13T17:23:40.693Z,100979.03
2022-12-13T17:26:08.649Z,100977.09
2022-12-13T17:28:36.325Z,100980.69
2022-12-13T17:31:07.515Z,100987.41
2022-12-13T17:33:35.174Z,100983.47
2022-12-13T17:36:04.784Z,100983.00
2022-12-13T17:38:32.313Z,100983.00
2022-12-13T17:41:00.577Z,100980.56
2022-12-13T17:43:34.256Z,100979.75
2022-12-13T17:46:03.413Z,100976.97
2022-12-13T17:48:37.594Z,100974.16
2022-12-13T17:51:09.346Z,100971.38
2022-12-13T17:53:37.027Z,100966.97
2022-12-13T17:56:05.647Z,100967.78
2022-12-13T17:58:33.298Z,100964.97
2022-12-13T18:01:01.077Z,100958.59
2022-12-13T18:03:28.982Z,100959.72
2022-12-13T18:05:57.045Z,100955.78
2022-12-13T18:08:26.079Z,100956.59
2022-12-13T18:11:23.508Z,100955.78
2022-12-13T18:13:41.825Z,100955.78
2022-12-13T18:16:10.212Z,100957.41
2022-12-13T18:18:37.856Z,100958.59
2022-12-13T18:21:06.006Z,100956.59
2022-12-13T18:23:35.187Z,100955.78
2022-12-13T18:26:02.816Z,100962.19
2022-12-13T18:28:30.407Z,100953.00
2022-12-13T18:30:58.279Z,100958.22
2022-12-13T18:33:26.718Z,100964.63
2022-12-13T18:35:54.857Z,100963.00
2022-12-13T18:38:23.303Z,100957.41
2022-12-13T18:40:55.542Z,100957.41
2022-12-13T18:43:23.428Z,100949.97
2022-12-13T18:45:51.952Z,100959.41
2022-12-13T18:48:19.765Z,100968.59
2022-12-13T18:50:48.991Z,100951.84
2022-12-13T18:53:16.843Z,100964.16
2022-12-13T18:55:44.556Z,100969.50
2022-12-13T18:58:13.537Z,100965.81
2022-12-13T19:00:41.717Z,100969.75
2022-12-13T19:03:09.469Z,100968.13
2022-12-13T19:05:37.165Z,100966.03
2022-12-13T19:08:04.862Z,100962.06
2022-12-13T19:10:32.617Z,100958.09
2022-12-13T19:13:01.259Z,100957.28
2022-12-13T19:15:30.249Z,100963.69
2022-12-13T19:17:57.891Z,100963.69
2022-12-13T19:20:25.667Z,100963.69
2022-12-13T19:22:53.446Z,100964.84
2022-12-13T19:25:21.095Z,100970.44
2022-12-13T19:27:48.871Z,100971.63
2022-12-13T19:30:17.672Z,100966.03
2022-12-13T19:32:48.225Z,100972.44
2022-12-13T19:35:16.115Z,100968.81
2022-12-13T19:37:43.691Z,100966.84
2022-12-13T19:40:11.997Z,100966.84
2022-12-13T19:42:40.685Z,100971.63
2022-12-13T19:45:10.098Z,100968.81
2022-12-13T19:47:38.703Z,100969.63
2022-12-13T19:50:08.296Z,100970.44
2022-12-13T19:52:35.954Z,100962.06
2022-12-13T19:55:03.494Z,100966.84
2022-12-13T19:57:32.756Z,100967.66
2022-12-13T20:00:01.240Z,100962.88
2022-12-13T20:02:29.214Z,100962.88
2022-12-13T20:04:57.138Z,100962.06
2022-12-13T20:07:26.622Z,100967.66
2022-12-13T20:09:54.972Z,100972.06
2022-12-13T20:12:22.644Z,100965.31
2022-12-13T20:14:50.265Z,100958.09
2022-12-13T20:17:17.799Z,100958.09
2022-12-13T20:19:45.383Z,100956.47
2022-12-13T20:22:13.001Z,100952.53
2022-12-13T20:24:42.318Z,100950.91
2022-12-13T20:27:10.427Z,100946.13
2022-12-13T20:29:38.510Z,100945.31
2022-12-13T20:32:06.273Z,100946.94
2022-12-13T20:34:34.422Z,100941.34
2022-12-13T20:37:02.050Z,100946.94
2022-12-13T20:39:29.633Z,100939.72
2022-12-13T20:41:58.601Z,100941.34
2022-12-13T20:44:26.425Z,100943.31
2022-12-13T20:46:54.079Z,100939.72
2022-12-13T20:49:21.839Z,100938.09
2022-12-13T20:51:49.474Z,100946.13
2022-12-13T20:54:17.071Z,100938.09
2022-12-13T20:56:44.652Z,100929.72
2022-12-13T20:59:13.819Z,100926.94
2022-12-13T21:01:41.824Z,100926.94
2022-12-13T21:04:09.740Z,100928.56
2022-12-13T21:06:38.587Z,100926.94
2022-12-13T21:09:06.560Z,100926.94
2022-12-13T21:11:35.595Z,100914.94
2022-12-13T21:14:08.263Z,100904.16
2022-12-13T21:16:38.690Z,100902.97
2022-12-13T21:19:07.187Z,100902.97
2022-12-13T21:21:34.839Z,100901.34
2022-12-13T21:24:03.170Z,100901.34
2022-12-13T21:26:35.403Z,100898.56
2022-12-13T21:29:04.555Z,100902.97
2022-12-13T21:31:32.194Z,100894.59
2022-12-13T21:34:01.853Z,100897.38
2022-12-13T21:36:29.917Z,100895.75
2022-12-13T21:38:58.024Z,100884.59
2022-12-13T21:41:25.886Z,100884.59
2022-12-13T21:43:53.448Z,100882.94
2022-12-13T21:46:21.387Z,100888.53
2022-12-13T21:48:49.097Z,100882.94
2022-12-13T21:51:18.564Z,100885.41
2022-12-13T21:53:46.671Z,100882.94
2022-12-13T21:56:32.057Z,100888.53
2022-12-13T21:59:17.678Z,100882.94
2022-12-13T22:02:03.474Z,100885.75
2022-12-13T22:04:31.218Z,100877.59
2022-12-13T22:07:00.259Z,100876.53
2022-12-13T22:09:27.964Z,100870.97
2022-12-13T22:11:55.620Z,100866.19
2022-12-13T22:14:23.331Z,100871.78
2022-12-13T22:16:51.137Z,100864.56
2022-12-13T22:19:18.967Z,100875.75
2022-12-13T22:21:47.079Z,100870.97
2022-12-13T22:24:16.308Z,100861.78
2022-12-13T22:26:43.883Z,100862.94
2022-12-13T22:29:11.952Z,100850.59
2022-12-13T22:31:39.578Z,100847.81
2022-12-13T22:34:07.392Z,100845.03
2022-12-13T22:36:35.051Z,100846.19
2022-12-13T22:39:02.682Z,100853.41
2022-12-13T22:41:31.627Z,100835.03
2022-12-13T22:43:59.342Z,100840.59
2022-12-13T22:46:27.013Z,100837.38
2022-12-13T22:48:54.646Z,100830.59
2022-12-13T22:51:23.080Z,100827.81
2022-12-13T22:53:50.691Z,100831.78
2022-12-13T22:56:19.064Z,100826.19
2022-12-13T22:58:48.050Z,100827.81
2022-12-13T23:01:16.524Z,100824.22
2022-12-13T23:03:44.201Z,100820.63
2022-12-13T23:06:12.372Z,100820.63
2022-12-13T23:08:43.401Z,100820.63
2022-12-13T23:11:28.977Z,100812.25
2022-12-13T23:13:58.277Z,100813.38
2022-12-13T23:16:26.406Z,100818.16
2022-12-13T23:19:10.705Z,100811.75
2022-12-13T23:21:41.968Z,100819.81
2022-12-13T23:24:15.982Z,100813.38
2022-12-13T23:26:43.621Z,100802.22
2022-12-13T23:29:12.530Z,100800.59
2022-12-13T23:46:16.583Z,100784.56
2022-12-13T23:48:44.616Z,100787.34
2022-12-13T23:51:13.587Z,100784.56
2022-12-13T23:53:41.395Z,100781.78
2022-12-13T23:56:09.816Z,100781.78
2022-12-13T23:58:41.300Z,100776.19
